Time;durP1;ratioP1;P1;durP2;ratioP2;P2;SDS_P1;SDS_P2;PMS_P1;PMS_P2;Temp;Humidity;BMP_temperature;BMP_pressure;BME280_temperature;BME280_humidity;BME280_pressure;Samples;Min_cycle;Max_cycle;Signal;HPM_P1;HPM_P2
2023/01/07 00:01:42;;;;;;;2.38;2.10;;;9.70;99.90;;;;;;5111282;28;20303;-79
2023/01/07 00:04:12;;;;;;;1.73;1.63;;;9.70;99.90;;;;;;5111199;28;20246;-80
2023/01/07 00:06:44;;;;;;;2.50;2.30;;;9.70;99.90;;;;;;5110826;28;20318;-80
2023/01/07 00:09:15;;;;;;;1.80;1.70;;;9.70;99.90;;;;;;5111245;28;20208;-80
2023/01/07 00:11:44;;;;;;;1.90;1.80;;;9.60;99.90;;;;;;5112411;28;20216;-79
2023/01/07 00:14:13;;;;;;;2.50;2.30;;;9.60;99.90;;;;;;5112995;28;20210;-79
2023/01/07 00:16:42;;;;;;;2.00;1.90;;;9.60;99.90;;;;;;5112768;28;20227;-80
2023/01/07 00:19:13;;;;;;;1.85;1.75;;;9.60;99.90;;;;;;5113156;28;20258;-80
2023/01/07 00:21:43;;;;;;;1.70;1.60;;;9.60;99.90;;;;;;5113311;28;20200;-80
2023/01/07 00:24:12;;;;;;;1.88;1.77;;;9.60;99.90;;;;;;5113147;28;20208;-80
2023/01/07 00:26:41;;;;;;;7.75;1.83;;;9.60;99.90;;;;;;5112856;28;20227;-79
2023/01/07 00:29:09;;;;;;;2.33;2.10;;;9.50;99.90;;;;;;5113119;28;20210;-79
2023/01/07 00:31:39;;;;;;;1.45;1.35;;;9.50;99.90;;;;;;5113107;28;20227;-80
2023/01/07 00:34:09;;;;;;;1.77;1.67;;;9.50;99.90;;;;;;5113142;28;20207;-80
2023/01/07 00:36:40;;;;;;;1.83;1.73;;;9.40;99.90;;;;;;5113154;28;20385;-80
2023/01/07 00:39:13;;;;;;;2.35;2.15;;;9.30;99.90;;;;;;5112809;28;20203;-79
2023/01/07 00:42:52;;;;;;;2.30;2.10;;;9.30;99.90;;;;;;5112864;28;20279;-79
2023/01/07 00:44:33;;;;;;;1.90;1.80;;;9.30;99.90;;;;;;5112516;28;20235;-80
2023/01/07 00:47:01;;;;;;;2.05;1.95;;;9.30;99.90;;;;;;5112767;28;20233;-79
2023/01/07 00:49:29;;;;;;;5.22;2.03;;;9.20;99.90;;;;;;5113337;28;20208;-80
2023/01/07 00:51:57;;;;;;;2.53;2.33;;;9.20;99.90;;;;;;5116859;28;20234;-80
2023/01/07 00:54:27;;;;;;;3.10;2.42;;;9.10;99.90;;;;;;5117459;28;20210;-80
2023/01/07 00:56:55;;;;;;;1.85;1.60;;;9.00;99.90;;;;;;5116565;28;20234;-79
2023/01/07 00:59:24;;;;;;;2.10;2.00;;;9.00;99.90;;;;;;5116891;28;20215;-80
2023/01/07 01:01:52;;;;;;;3.00;2.60;;;9.00;99.90;;;;;;5117162;28;20200;-80
2023/01/07 01:04:20;;;;;;;2.15;1.98;;;9.00;99.90;;;;;;5116805;28;20283;-80
2023/01/07 01:06:48;;;;;;;2.40;2.20;;;8.90;99.90;;;;;;5116250;28;20230;-80
2023/01/07 01:09:19;;;;;;;2.35;2.08;;;8.80;99.90;;;;;;5116747;28;20202;-80
2023/01/07 01:11:49;;;;;;;2.08;1.92;;;8.80;99.90;;;;;;5116140;28;20271;-80
2023/01/07 01:14:17;;;;;;;2.00;1.90;;;8.80;99.90;;;;;;5116634;28;20210;-80
2023/01/07 01:16:45;;;;;;;1.85;1.73;;;8.80;99.90;;;;;;5116397;28;20231;-80
2023/01/07 01:19:13;;;;;;;2.42;2.22;;;8.70;99.90;;;;;;5116475;28;20218;-80
2023/01/07 01:21:41;;;;;;;2.53;2.33;;;8.70;99.90;;;;;;5116358;28;20200;-80
2023/01/07 01:24:10;;;;;;;2.00;1.90;;;8.70;99.90;;;;;;5116281;28;20208;-80
2023/01/07 01:26:38;;;;;;;2.38;2.28;;;8.70;99.90;;;;;;5116257;28;20310;-80
2023/01/07 01:29:08;;;;;;;2.58;2.38;;;8.70;99.90;;;;;;5116439;28;20210;-80
2023/01/07 01:31:36;;;;;;;3.00;2.72;;;8.80;99.90;;;;;;5116388;28;20215;-80
2023/01/07 01:34:04;;;;;;;2.70;2.50;;;8.90;99.90;;;;;;5116156;28;20204;-80
2023/01/07 01:36:32;;;;;;;3.58;2.80;;;9.00;99.90;;;;;;5116015;28;20230;-79
2023/01/07 01:39:01;;;;;;;2.38;2.17;;;9.10;99.90;;;;;;5116069;28;20207;-80
2023/01/07 01:41:29;;;;;;;3.25;2.92;;;9.20;99.90;;;;;;5116156;28;20208;-79
2023/01/07 01:43:57;;;;;;;2.25;2.05;;;9.20;99.90;;;;;;5115755;28;20208;-80
2023/01/07 01:46:34;;;;;;;2.65;2.45;;;9.10;99.90;;;;;;5115796;28;20234;-79
2023/01/07 01:49:05;;;;;;;2.97;2.70;;;9.20;99.90;;;;;;5115889;28;20214;-79
2023/01/07 01:51:39;;;;;;;2.97;2.70;;;9.10;99.90;;;;;;5115792;28;20223;-79
2023/01/07 01:54:11;;;;;;;2.05;1.95;;;9.10;99.90;;;;;;5116207;28;20212;-79
2023/01/07 01:56:43;;;;;;;2.83;2.08;;;9.10;99.90;;;;;;5115685;28;20223;-79
2023/01/07 01:59:17;;;;;;;3.10;2.63;;;9.10;99.90;;;;;;5115265;28;20226;-79
2023/01/07 02:01:47;;;;;;;2.53;2.33;;;9.10;99.90;;;;;;5114696;28;20199;-79
2023/01/07 02:04:19;;;;;;;2.47;2.33;;;9.20;99.90;;;;;;5116017;28;20260;-80
2023/01/07 02:06:55;;;;;;;2.45;2.25;;;9.10;99.90;;;;;;5115571;28;20453;-80
2023/01/07 02:09:23;;;;;;;2.20;2.00;;;9.20;99.90;;;;;;5115558;28;20210;-80
2023/01/07 02:12:02;;;;;;;3.55;3.15;;;9.20;99.90;;;;;;5115406;28;20239;-80
2023/01/07 02:14:58;;;;;;;3.90;3.38;;;9.20;99.90;;;;;;5115383;28;20212;-80
2023/01/07 02:17:38;;;;;;;3.00;2.80;;;9.20;99.90;;;;;;5115540;28;20204;-80
2023/01/07 02:20:30;;;;;;;2.97;2.60;;;9.20;99.90;;;;;;5115891;28;20207;-80
2023/01/07 02:23:32;;;;;;;2.63;2.42;;;9.30;99.90;;;;;;5115253;28;20234;-80
2023/01/07 02:26:28;;;;;;;3.95;3.33;;;9.30;99.90;;;;;;5095162;28;20226;-80
2023/01/07 02:29:27;;;;;;;2.58;2.40;;;9.30;99.90;;;;;;5115428;28;20227;-80
2023/01/07 02:32:20;;;;;;;3.22;2.90;;;9.30;99.90;;;;;;5094340;28;20227;-80
2023/01/07 02:35:00;;;;;;;2.85;2.65;;;9.30;99.90;;;;;;5115546;28;20214;-80
2023/01/07 02:37:35;;;;;;;3.45;3.15;;;9.30;99.90;;;;;;5114879;28;20211;-80
2023/01/07 02:40:10;;;;;;;3.17;2.95;;;9.30;99.90;;;;;;5115033;28;20211;-81
2023/01/07 02:42:49;;;;;;;2.83;2.50;;;9.30;99.90;;;;;;5114841;28;20209;-80
2023/01/07 02:45:26;;;;;;;3.60;3.22;;;9.30;99.90;;;;;;5115103;28;20230;-80
2023/01/07 02:47:59;;;;;;;2.88;2.67;;;9.30;99.90;;;;;;5114893;28;20250;-81
2023/01/07 02:50:28;;;;;;;2.92;2.67;;;9.30;99.90;;;;;;5114970;28;20273;-80
2023/01/07 02:52:56;;;;;;;3.17;2.88;;;9.20;99.90;;;;;;5115045;28;20230;-80
2023/01/07 02:55:35;;;;;;;3.03;2.50;;;9.20;99.90;;;;;;5114776;28;20230;-80
2023/01/07 02:58:22;;;;;;;2.30;2.20;;;9.20;99.90;;;;;;5114745;28;20192;-80
2023/01/07 03:01:08;;;;;;;3.03;2.70;;;9.30;99.90;;;;;;5114603;28;20217;-80
2023/01/07 03:03:54;;;;;;;2.72;2.15;;;9.30;99.90;;;;;;5114410;28;20229;-80
2023/01/07 03:06:37;;;;;;;2.67;2.47;;;9.40;99.90;;;;;;5114395;28;20250;-80
2023/01/07 03:09:11;;;;;;;3.92;2.97;;;9.40;99.90;;;;;;5114195;28;20206;-80
2023/01/07 03:11:47;;;;;;;2.58;2.38;;;9.40;99.90;;;;;;5114551;28;20218;-80
2023/01/07 03:14:19;;;;;;;2.70;2.50;;;9.50;99.90;;;;;;5114351;28;20207;-80
2023/01/07 03:16:53;;;;;;;2.60;2.40;;;9.50;99.90;;;;;;5113875;28;20298;-80
2023/01/07 03:19:28;;;;;;;2.65;2.45;;;9.50;99.90;;;;;;5114047;28;20196;-80
2023/01/07 03:21:59;;;;;;;2.92;2.65;;;9.50;99.90;;;;;;5114524;28;20201;-80
2023/01/07 03:24:28;;;;;;;3.83;3.47;;;9.50;99.90;;;;;;5114231;28;20214;-80
2023/01/07 03:26:59;;;;;;;3.03;2.72;;;9.50;99.90;;;;;;5114087;28;20223;-80
2023/01/07 03:29:30;;;;;;;4.28;2.70;;;9.50;99.90;;;;;;5114163;28;20217;-80
2023/01/07 03:32:04;;;;;;;2.83;2.63;;;9.50;99.90;;;;;;5114017;28;20214;-80
2023/01/07 03:34:37;;;;;;;2.72;2.53;;;9.50;99.90;;;;;;5113977;28;20259;-80
2023/01/07 03:37:09;;;;;;;2.03;1.92;;;9.50;99.90;;;;;;5113367;28;20223;-80
2023/01/07 03:39:39;;;;;;;3.92;2.70;;;9.50;99.90;;;;;;5114609;28;20206;-80
2023/01/07 03:44:55;;;;;;;2.63;2.42;;;9.50;99.90;;;;;;5113575;28;20223;-80
2023/01/07 03:47:24;;;;;;;2.92;2.60;;;9.50;99.90;;;;;;5113555;28;20287;-80
2023/01/07 03:49:53;;;;;;;2.40;2.30;;;9.50;99.90;;;;;;5113968;28;20210;-80
2023/01/07 03:52:21;;;;;;;2.85;2.60;;;9.50;99.90;;;;;;5113729;28;20204;-79
2023/01/07 03:54:50;;;;;;;2.65;2.45;;;9.50;99.90;;;;;;5113661;28;20207;-79
2023/01/07 03:57:18;;;;;;;2.65;2.42;;;9.50;99.90;;;;;;5113666;28;20204;-80
2023/01/07 03:59:46;;;;;;;2.50;2.30;;;9.50;99.90;;;;;;5113382;28;20222;-79
2023/01/07 04:02:14;;;;;;;3.47;3.17;;;9.50;99.90;;;;;;5113618;28;20211;-80
2023/01/07 04:04:43;;;;;;;3.35;3.05;;;9.50;99.90;;;;;;5113541;28;20200;-79
2023/01/07 04:07:13;;;;;;;2.72;2.53;;;9.60;99.90;;;;;;5113749;28;20220;-79
2023/01/07 04:09:41;;;;;;;2.40;2.20;;;9.60;99.90;;;;;;5113329;28;20200;-79
2023/01/07 04:12:10;;;;;;;2.60;2.40;;;9.60;99.90;;;;;;5113134;28;20200;-79
2023/01/07 04:14:38;;;;;;;2.22;2.13;;;9.60;99.90;;;;;;5112948;28;20235;-78
2023/01/07 04:17:06;;;;;;;2.55;2.30;;;9.60;99.90;;;;;;5112877;28;20219;-79
2023/01/07 04:19:37;;;;;;;2.97;2.67;;;9.60;99.90;;;;;;5113161;28;20203;-79
2023/01/07 04:22:05;;;;;;;2.90;2.20;;;9.60;99.90;;;;;;5112779;28;20207;-79
2023/01/07 04:24:35;;;;;;;3.92;2.78;;;9.60;99.90;;;;;;5113138;28;20211;-79
2023/01/07 04:27:03;;;;;;;2.47;2.28;;;9.60;99.90;;;;;;5113166;28;20234;-79
2023/01/07 04:29:31;;;;;;;2.25;2.15;;;9.60;99.90;;;;;;5113187;28;20203;-79
2023/01/07 04:32:00;;;;;;;4.53;2.83;;;9.60;99.90;;;;;;5113289;28;20227;-79
2023/01/07 04:34:28;;;;;;;2.13;2.03;;;9.60;99.90;;;;;;5112739;28;20250;-79
2023/01/07 04:36:56;;;;;;;2.63;2.40;;;9.70;99.90;;;;;;5112771;28;20224;-80
2023/01/07 04:39:24;;;;;;;3.08;2.78;;;9.70;99.90;;;;;;5113078;28;20218;-79
2023/01/07 04:41:54;;;;;;;2.35;2.15;;;9.70;99.90;;;;;;5112628;28;20207;-79
2023/01/07 04:44:22;;;;;;;2.67;2.42;;;9.70;99.90;;;;;;5112837;28;20195;-78
2023/01/07 04:46:51;;;;;;;2.45;2.17;;;9.70;99.90;;;;;;5112417;28;20291;-79
2023/01/07 04:49:19;;;;;;;2.80;2.60;;;9.60;99.90;;;;;;5112838;28;20212;-79
2023/01/07 04:51:47;;;;;;;2.55;2.17;;;9.70;99.90;;;;;;5113115;28;20286;-78
2023/01/07 04:54:15;;;;;;;1.90;1.80;;;9.70;99.90;;;;;;5112785;28;20216;-79
2023/01/07 04:56:44;;;;;;;2.30;2.20;;;9.70;99.90;;;;;;5112680;28;20224;-79
2023/01/07 04:59:14;;;;;;;2.25;2.10;;;9.70;99.90;;;;;;5112719;28;20204;-79
2023/01/07 05:01:42;;;;;;;2.83;2.63;;;9.70;99.90;;;;;;5112988;28;20210;-79
2023/01/07 05:04:10;;;;;;;2.13;2.00;;;9.60;99.90;;;;;;5112963;28;20200;-79
2023/01/07 05:06:39;;;;;;;2.08;1.98;;;9.60;99.90;;;;;;5112788;28;20232;-79
2023/01/07 05:09:07;;;;;;;2.13;2.03;;;9.60;99.90;;;;;;5112532;28;20215;-79
2023/01/07 05:11:35;;;;;;;3.00;2.80;;;9.60;99.90;;;;;;5112809;28;20206;-80
2023/01/07 05:14:04;;;;;;;2.40;2.20;;;9.60;99.90;;;;;;5112362;28;20220;-80
2023/01/07 05:16:33;;;;;;;2.60;2.40;;;9.60;99.90;;;;;;5112898;28;20220;-80
2023/01/07 05:19:02;;;;;;;2.00;1.90;;;9.60;99.90;;;;;;5112484;28;20219;-80
2023/01/07 05:21:30;;;;;;;2.42;2.22;;;9.60;99.90;;;;;;5112647;28;20207;-80
2023/01/07 05:23:58;;;;;;;2.08;1.98;;;9.60;99.90;;;;;;5113322;28;20204;-80
2023/01/07 05:26:27;;;;;;;1.88;1.77;;;9.60;99.90;;;;;;5112416;28;20261;-80
2023/01/07 05:28:55;;;;;;;2.00;1.90;;;9.60;99.90;;;;;;5112927;28;20203;-80
2023/01/07 05:31:23;;;;;;;2.00;1.90;;;9.60;99.90;;;;;;5112473;28;20208;-80
2023/01/07 05:33:53;;;;;;;2.50;2.30;;;9.60;99.90;;;;;;5112680;28;20226;-80
2023/01/07 05:36:22;;;;;;;5.57;3.17;;;9.60;99.90;;;;;;5112596;28;20224;-80
2023/01/07 05:38:50;;;;;;;2.08;1.90;;;9.60;99.90;;;;;;5115881;28;20218;-80
2023/01/07 05:41:18;;;;;;;2.78;2.50;;;9.60;99.90;;;;;;5116240;28;20211;-80
2023/01/07 05:43:46;;;;;;;2.03;1.92;;;9.50;99.90;;;;;;5116049;28;20199;-80
2023/01/07 05:46:14;;;;;;;2.10;1.98;;;9.60;99.90;;;;;;5115860;28;20238;-80
2023/01/07 05:48:43;;;;;;;2.60;2.15;;;9.60;99.90;;;;;;5115608;28;20208;-79
2023/01/07 05:51:12;;;;;;;2.75;2.45;;;9.50;99.90;;;;;;5116035;28;20210;-80
2023/01/07 05:53:41;;;;;;;1.90;1.80;;;9.50;99.90;;;;;;5116060;28;20220;-80
2023/01/07 05:56:09;;;;;;;2.35;2.15;;;9.50;99.90;;;;;;5115742;28;20238;-80
2023/01/07 05:58:37;;;;;;;2.35;2.15;;;9.50;99.90;;;;;;5115742;28;20208;-80
2023/01/07 06:01:05;;;;;;;2.60;2.40;;;9.50;99.90;;;;;;5115654;28;20208;-79
2023/01/07 06:03:34;;;;;;;2.35;2.15;;;9.50;99.90;;;;;;5115622;28;20207;-80
2023/01/07 06:06:06;;;;;;;2.35;2.15;;;9.50;99.90;;;;;;5115782;28;20223;-80
2023/01/07 06:08:36;;;;;;;2.97;2.78;;;9.50;99.90;;;;;;5115570;28;20218;-80
2023/01/07 06:11:06;;;;;;;2.78;2.58;;;9.50;99.90;;;;;;5115798;28;20211;-80
2023/01/07 06:13:35;;;;;;;2.08;1.98;;;9.50;99.90;;;;;;5115282;28;20200;-80
2023/01/07 06:16:05;;;;;;;2.65;2.45;;;9.40;99.90;;;;;;5115244;28;20229;-80
2023/01/07 06:18:34;;;;;;;2.17;2.08;;;9.40;99.90;;;;;;5115106;28;20215;-79
2023/01/07 06:21:03;;;;;;;2.50;2.30;;;9.40;99.90;;;;;;5115165;28;20211;-80
2023/01/07 06:23:31;;;;;;;2.45;2.28;;;9.40;99.90;;;;;;5115107;28;20210;-79
2023/01/07 06:26:01;;;;;;;2.50;2.30;;;9.40;99.90;;;;;;5115133;28;20231;-79
2023/01/07 06:28:29;;;;;;;2.65;2.45;;;9.40;99.90;;;;;;5114684;28;20210;-79
2023/01/07 06:30:58;;;;;;;3.35;2.72;;;9.40;99.90;;;;;;5114913;28;20210;-79
2023/01/07 06:33:26;;;;;;;2.05;1.88;;;9.30;99.90;;;;;;5114690;28;20200;-79
2023/01/07 06:35:54;;;;;;;2.33;2.13;;;9.20;99.90;;;;;;5114164;28;20228;-79
2023/01/07 06:38:22;;;;;;;1.92;1.83;;;9.20;99.90;;;;;;5114762;28;20206;-78
2023/01/07 06:40:50;;;;;;;2.80;2.60;;;9.10;99.90;;;;;;5114672;28;20214;-78
2023/01/07 06:43:20;;;;;;;2.55;2.00;;;9.10;99.90;;;;;;5114279;28;20208;-80
2023/01/07 06:45:48;;;;;;;3.35;2.63;;;9.00;99.90;;;;;;5114169;28;20227;-79
2023/01/07 06:48:17;;;;;;;2.03;1.92;;;8.90;99.90;;;;;;5113278;28;20208;-79
2023/01/07 06:50:45;;;;;;;5.47;2.30;;;8.90;99.90;;;;;;5114103;28;20298;-79
2023/01/07 06:53:14;;;;;;;2.40;2.15;;;8.80;99.90;;;;;;5114186;28;20206;-79
2023/01/07 06:55:48;;;;;;;3.08;2.53;;;8.70;99.90;;;;;;5113949;28;20249;-80
2023/01/07 06:58:16;;;;;;;2.13;1.92;;;8.70;99.90;;;;;;5114541;28;20293;-80
2023/01/07 07:00:46;;;;;;;2.63;2.25;;;8.70;99.90;;;;;;5114078;28;20226;-80
2023/01/07 07:03:14;;;;;;;2.03;1.92;;;8.60;99.90;;;;;;5114141;28;20290;-80
2023/01/07 07:05:43;;;;;;;2.33;2.13;;;8.60;99.90;;;;;;5114484;28;20284;-80
2023/01/07 07:08:11;;;;;;;2.53;2.33;;;8.60;99.90;;;;;;5114074;28;20211;-80
2023/01/07 07:10:39;;;;;;;3.45;3.15;;;8.60;99.90;;;;;;5114185;28;20208;-80
2023/01/07 07:13:07;;;;;;;6.80;6.20;;;8.50;99.90;;;;;;5113888;28;20207;-80
2023/01/07 07:15:35;;;;;;;4.93;4.45;;;8.50;99.90;;;;;;5113603;28;20223;-80
2023/01/07 07:18:05;;;;;;;4.88;4.47;;;8.50;99.90;;;;;;5113540;28;20238;-80
2023/01/07 07:20:34;;;;;;;4.32;3.92;;;8.50;99.90;;;;;;5113965;28;20291;-80
2023/01/07 07:23:02;;;;;;;5.88;4.60;;;8.50;99.90;;;;;;5113834;28;20207;-80
2023/01/07 07:25:30;;;;;;;4.03;3.67;;;8.40;99.90;;;;;;5113432;28;20220;-80
2023/01/07 07:27:58;;;;;;;4.63;3.92;;;8.40;99.90;;;;;;5113498;28;20218;-80
2023/01/07 07:30:27;;;;;;;5.75;3.95;;;8.40;99.90;;;;;;5113791;28;20204;-80
2023/01/07 07:33:17;;;;;;;6.30;4.55;;;8.40;99.90;;;;;;5113553;28;20211;-80
2023/01/07 07:35:46;;;;;;;5.63;3.60;;;8.40;99.90;;;;;;5113579;28;20259;-80
2023/01/07 07:38:16;;;;;;;5.32;4.07;;;8.40;99.90;;;;;;5113356;28;20211;-80
2023/01/07 07:40:45;;;;;;;3.97;3.58;;;8.50;99.90;;;;;;5113390;28;20210;-79
2023/01/07 07:43:13;;;;;;;8.02;4.22;;;8.50;99.90;;;;;;5113176;28;20203;-79
2023/01/07 07:45:41;;;;;;;4.07;3.42;;;8.50;99.90;;;;;;5113600;28;20219;-79
2023/01/07 07:48:11;;;;;;;5.40;3.78;;;8.50;99.90;;;;;;5113101;28;20208;-80
2023/01/07 07:50:42;;;;;;;4.07;3.72;;;8.50;99.90;;;;;;5113173;28;20217;-79
2023/01/07 07:53:10;;;;;;;3.60;3.30;;;8.40;99.90;;;;;;5113404;28;20214;-79
2023/01/07 07:55:39;;;;;;;3.58;3.22;;;8.40;99.90;;;;;;5112896;28;20255;-79
2023/01/07 07:58:07;;;;;;;4.75;4.22;;;8.40;99.90;;;;;;5112835;28;20200;-79
2023/01/07 08:00:35;;;;;;;5.55;3.92;;;8.40;99.90;;;;;;5112278;28;20210;-79
2023/01/07 08:03:04;;;;;;;4.28;3.88;;;8.50;99.90;;;;;;5112818;28;20203;-79
2023/01/07 08:05:32;;;;;;;3.60;3.30;;;8.50;99.90;;;;;;5112875;28;20239;-79
2023/01/07 08:08:02;;;;;;;5.20;3.53;;;8.50;99.90;;;;;;5112745;28;20199;-79
2023/01/07 08:10:30;;;;;;;4.38;3.97;;;8.60;99.90;;;;;;5112735;28;20214;-80
2023/01/07 08:12:59;;;;;;;5.22;4.45;;;8.60;99.90;;;;;;5112941;28;20215;-80
2023/01/07 08:15:27;;;;;;;3.63;3.33;;;8.70;99.90;;;;;;5112805;28;20220;-79
2023/01/07 08:18:00;;;;;;;4.13;3.35;;;8.70;99.90;;;;;;5112265;28;20207;-79
2023/01/07 08:20:29;;;;;;;8.35;3.75;;;8.70;99.90;;;;;;5112389;28;20204;-79
2023/01/07 08:22:59;;;;;;;3.20;3.00;;;8.70;99.90;;;;;;5112668;28;20204;-78
2023/01/07 08:25:30;;;;;;;6.50;3.28;;;8.80;99.90;;;;;;5112689;28;20219;-80
2023/01/07 08:28:00;;;;;;;2.97;2.78;;;8.80;99.90;;;;;;5112816;28;20207;-80
2023/01/07 08:30:30;;;;;;;3.55;3.15;;;8.80;99.90;;;;;;5112640;28;20204;-79
2023/01/07 08:32:58;;;;;;;2.95;2.75;;;8.80;99.90;;;;;;5112597;28;20211;-79
2023/01/07 08:35:27;;;;;;;3.45;3.15;;;8.80;99.90;;;;;;5112264;28;20231;-79
2023/01/07 08:38:02;;;;;;;2.70;2.42;;;8.90;99.90;;;;;;5112714;28;20207;-79
2023/01/07 08:40:32;;;;;;;4.85;2.72;;;8.90;99.90;;;;;;5112918;28;20207;-79
2023/01/07 08:43:00;;;;;;;3.35;3.13;;;8.90;99.90;;;;;;5112655;28;20207;-79
2023/01/07 08:45:29;;;;;;;3.30;2.95;;;8.90;99.90;;;;;;5112731;28;20227;-79
2023/01/07 08:47:58;;;;;;;3.00;2.80;;;8.90;99.90;;;;;;5112422;28;20294;-79
2023/01/07 08:50:28;;;;;;;3.92;3.63;;;9.00;99.90;;;;;;5112399;28;20263;-79
2023/01/07 08:52:56;;;;;;;4.65;3.80;;;9.00;99.90;;;;;;5112558;28;20204;-79
2023/01/07 08:55:25;;;;;;;4.15;3.75;;;9.10;99.90;;;;;;5112453;28;20310;-79
2023/01/07 08:57:55;;;;;;;4.32;3.42;;;9.10;99.90;;;;;;5112420;28;20275;-79
2023/01/07 09:00:23;;;;;;;2.95;2.72;;;9.10;99.90;;;;;;5112281;28;20271;-79
2023/01/07 09:02:52;;;;;;;4.55;2.88;;;9.20;99.90;;;;;;5112357;28;20204;-78
2023/01/07 09:05:20;;;;;;;2.75;2.50;;;9.30;99.90;;;;;;5112332;28;20234;-79
2023/01/07 09:07:52;;;;;;;2.38;2.17;;;9.40;99.90;;;;;;5112068;28;20302;-79
2023/01/07 09:10:20;;;;;;;3.00;2.72;;;9.50;99.90;;;;;;5112785;28;20203;-80
2023/01/07 09:12:49;;;;;;;2.55;2.35;;;9.50;99.90;;;;;;5116322;28;20217;-79
2023/01/07 09:15:19;;;;;;;2.17;2.00;;;9.50;99.90;;;;;;5116579;28;20230;-84
2023/01/07 09:17:47;;;;;;;2.55;2.35;;;9.70;99.90;;;;;;5115853;28;20230;-84
2023/01/07 09:20:15;;;;;;;2.72;2.45;;;9.80;99.90;;;;;;5116398;28;20238;-84
2023/01/07 09:22:44;;;;;;;2.70;2.50;;;9.90;99.90;;;;;;5116313;28;20203;-84
2023/01/07 09:25:12;;;;;;;2.67;2.00;;;10.00;99.90;;;;;;5115887;28;20314;-83
2023/01/07 09:27:41;;;;;;;3.83;2.20;;;10.20;99.90;;;;;;5116075;28;20200;-84
2023/01/07 09:30:10;;;;;;;2.30;2.20;;;10.20;99.90;;;;;;5116089;28;20303;-84
2023/01/07 09:32:41;;;;;;;2.38;2.17;;;10.30;99.90;;;;;;5116189;28;20211;-84
2023/01/07 09:35:10;;;;;;;1.77;1.67;;;10.30;99.90;;;;;;5115952;28;20227;-84
2023/01/07 09:37:39;;;;;;;2.38;2.17;;;10.40;99.90;;;;;;5115664;28;20219;-83
2023/01/07 09:40:14;;;;;;;2.80;2.00;;;10.50;99.90;;;;;;5116068;28;20235;-84
2023/01/07 09:42:51;;;;;;;1.98;1.88;;;10.50;99.90;;;;;;5115484;28;20211;-84
2023/01/07 09:45:24;;;;;;;3.33;2.70;;;10.70;99.90;;;;;;5116478;28;20238;-84
2023/01/07 09:47:56;;;;;;;3.33;1.92;;;10.80;99.90;;;;;;5115461;28;20208;-84
2023/01/07 09:50:38;;;;;;;2.05;1.95;;;10.90;99.90;;;;;;5115937;28;20206;-84
2023/01/07 09:53:13;;;;;;;3.28;2.90;;;11.00;99.90;;;;;;5115575;28;20215;-84
2023/01/07 09:55:43;;;;;;;2.65;2.45;;;11.00;99.90;;;;;;5115593;28;20314;-84
2023/01/07 09:58:31;;;;;;;3.88;3.47;;;11.00;99.90;;;;;;5115590;28;20206;-84
2023/01/07 10:01:08;;;;;;;4.38;2.63;;;11.00;99.90;;;;;;5115378;28;20215;-84
2023/01/07 10:03:50;;;;;;;4.28;2.67;;;10.90;99.90;;;;;;5115475;28;20214;-84
2023/01/07 10:06:24;;;;;;;2.10;2.00;;;10.90;99.90;;;;;;5115306;28;20223;-84
2023/01/07 10:09:19;;;;;;;2.00;1.85;;;10.90;99.90;;;;;;5115523;28;20214;-84
2023/01/07 10:11:59;;;;;;;2.00;1.90;;;10.80;99.90;;;;;;5115564;28;20211;-84
2023/01/07 10:15:06;;;;;;;2.22;2.03;;;10.70;99.90;;;;;;5115130;28;20199;-83
2023/01/07 10:17:47;;;;;;;2.30;2.10;;;10.70;99.90;;;;;;5090184;28;20231;-84
2023/01/07 10:20:25;;;;;;;2.05;1.85;;;10.70;99.90;;;;;;5115378;28;20207;-85
2023/01/07 10:22:58;;;;;;;1.92;1.77;;;10.70;99.90;;;;;;5114517;28;20200;-83
2023/01/07 10:25:31;;;;;;;3.97;2.95;;;10.80;99.90;;;;;;5115509;28;20224;-84
2023/01/07 10:28:04;;;;;;;2.13;2.03;;;10.90;99.90;;;;;;5114721;28;20204;-84
2023/01/07 10:30:37;;;;;;;1.98;1.85;;;11.00;99.90;;;;;;5114975;28;20199;-84
2023/01/07 10:33:18;;;;;;;2.00;1.90;;;11.10;99.90;;;;;;5115395;28;20211;-84
2023/01/07 10:35:49;;;;;;;1.80;1.70;;;11.30;99.90;;;;;;5114738;28;20227;-84
2023/01/07 10:38:20;;;;;;;2.33;2.08;;;11.40;99.90;;;;;;5115232;28;20210;-84
2023/01/07 10:40:53;;;;;;;1.95;1.85;;;11.50;99.90;;;;;;5114427;27;20208;-84
2023/01/07 10:43:33;;;;;;;4.72;1.58;;;11.50;99.90;;;;;;5114940;28;20237;-80
2023/01/07 10:46:23;;;;;;;1.55;1.42;;;11.50;99.90;;;;;;5114718;28;20227;-79
2023/01/07 10:49:03;;;;;;;1.80;1.67;;;11.40;99.90;;;;;;5114275;28;20227;-79
2023/01/07 10:51:50;;;;;;;2.10;1.60;;;11.50;99.90;;;;;;5114943;28;20210;-80
2023/01/07 10:54:36;;;;;;;2.50;1.88;;;11.50;99.90;;;;;;5114649;28;20216;-79
2023/01/07 10:57:10;;;;;;;1.50;1.40;;;11.50;99.90;;;;;;5113990;28;20252;-80
2023/01/07 10:59:39;;;;;;;1.80;1.70;;;11.50;99.90;;;;;;5114251;28;20204;-80
2023/01/07 11:02:16;;;;;;;1.65;1.55;;;11.60;99.90;;;;;;5114691;28;20208;-80
2023/01/07 11:04:45;;;;;;;1.92;1.83;;;11.80;99.90;;;;;;5114730;28;20214;-80
2023/01/07 11:07:21;;;;;;;2.17;1.90;;;11.90;99.90;;;;;;5114261;28;20211;-79
2023/01/07 11:09:51;;;;;;;1.65;1.55;;;11.90;99.90;;;;;;5114127;28;20222;-79
2023/01/07 11:12:27;;;;;;;1.95;1.77;;;12.00;99.90;;;;;;5114195;28;20208;-79
2023/01/07 11:14:58;;;;;;;1.63;1.52;;;12.10;99.90;;;;;;5114413;28;20207;-79
2023/01/07 11:17:34;;;;;;;1.92;1.83;;;12.20;99.90;;;;;;5113958;28;20226;-79
2023/01/07 11:20:03;;;;;;;1.80;1.70;;;12.20;99.90;;;;;;5114642;28;20200;-79
2023/01/07 11:22:35;;;;;;;2.38;2.00;;;12.30;99.90;;;;;;5114206;28;20214;-80
2023/01/07 11:25:27;;;;;;;2.42;1.80;;;12.50;99.90;;;;;;5113820;28;20210;-80
2023/01/07 11:27:57;;;;;;;2.47;2.17;;;12.80;99.90;;;;;;5113711;28;20199;-85
2023/01/07 11:30:28;;;;;;;1.90;1.80;;;13.60;99.90;;;;;;5114310;28;20215;-85
2023/01/07 11:33:00;;;;;;;1.75;1.65;;;14.40;99.90;;;;;;5113994;28;20204;-85
2023/01/07 11:35:29;;;;;;;2.22;2.03;;;15.20;99.90;;;;;;5113989;28;20230;-85
2023/01/07 11:38:00;;;;;;;1.55;1.45;;;16.00;99.90;;;;;;5113584;28;20219;-80
2023/01/07 11:40:30;;;;;;;2.08;1.98;;;16.50;99.90;;;;;;5113988;28;20299;-79
2023/01/07 11:43:00;;;;;;;2.20;1.83;;;17.10;99.90;;;;;;5113686;28;20246;-80
2023/01/07 11:45:31;;;;;;;2.28;2.17;;;17.30;99.90;;;;;;5113950;28;20287;-80
2023/01/07 11:48:06;;;;;;;3.20;2.95;;;17.60;99.90;;;;;;5113219;28;20206;-80
2023/01/07 11:50:37;;;;;;;6.00;3.10;;;17.60;99.90;;;;;;5113445;28;20207;-79
2023/01/07 11:53:27;;;;;;;2.08;1.95;;;17.70;99.90;;;;;;5113421;28;20211;-80
2023/01/07 11:55:58;;;;;;;2.15;2.05;;;17.80;99.90;;;;;;5113700;28;20231;-79
2023/01/07 11:58:28;;;;;;;3.42;3.13;;;17.80;99.90;;;;;;5113607;28;20224;-79
2023/01/07 12:01:20;;;;;;;2.83;2.60;;;17.90;99.90;;;;;;5113425;28;20265;-79
2023/01/07 12:04:20;;;;;;;2.45;2.25;;;18.00;99.90;;;;;;5109313;28;20260;-79
2023/01/07 12:06:51;;;;;;;2.50;2.30;;;18.10;99.90;;;;;;5070763;28;20233;-79
2023/01/07 12:09:35;;;;;;;2.72;2.53;;;18.10;99.90;;;;;;5104936;28;20204;-85
2023/01/07 12:12:30;;;;;;;4.32;2.38;;;17.90;99.90;;;;;;5113366;28;20203;-85
2023/01/07 12:15:01;;;;;;;2.40;2.20;;;17.90;99.90;;;;;;5113263;28;20215;-83
2023/01/07 12:17:32;;;;;;;2.63;2.42;;;18.10;99.90;;;;;;5113048;28;20220;-83
2023/01/07 12:20:36;;;;;;;3.03;2.78;;;18.20;99.90;;;;;;5113018;28;20216;-83
2023/01/07 12:23:16;;;;;;;4.80;3.08;;;18.30;99.90;;;;;;5113368;28;20209;-83
2023/01/07 12:25:58;;;;;;;3.55;3.25;;;18.20;99.90;;;;;;5113042;28;20238;-83
2023/01/07 12:28:57;;;;;;;2.83;2.63;;;18.20;99.90;;;;;;5112994;28;20207;-83
2023/01/07 12:31:33;;;;;;;3.60;3.30;;;18.40;99.90;;;;;;5113691;28;20208;-83
2023/01/07 12:34:07;;;;;;;4.00;3.45;;;18.60;99.90;;;;;;5113085;28;20199;-84
2023/01/07 12:36:44;;;;;;;3.03;2.83;;;18.20;99.90;;;;;;5113478;28;20385;-83
2023/01/07 12:39:19;;;;;;;4.45;4.05;;;17.90;99.90;;;;;;5112625;28;20230;-83
2023/01/07 12:41:57;;;;;;;4.57;4.15;;;17.50;99.90;;;;;;5112908;28;20267;-83
2023/01/07 12:44:26;;;;;;;4.03;3.70;;;17.00;99.90;;;;;;5112887;28;20207;-83
2023/01/07 12:47:03;;;;;;;4.30;3.90;;;16.50;99.90;;;;;;5115544;28;20232;-78
2023/01/07 12:49:59;;;;;;;3.55;3.25;;;16.10;99.90;;;;;;5116904;28;20204;-80
2023/01/07 12:52:38;;;;;;;6.53;4.15;;;15.50;99.90;;;;;;5117578;28;20267;-78
2023/01/07 12:55:17;;;;;;;4.60;4.10;;;15.30;99.90;;;;;;5116661;28;20255;-78
2023/01/07 12:58:05;;;;;;;5.35;3.88;;;14.80;99.90;;;;;;5116659;28;20275;-78
2023/01/07 13:00:40;;;;;;;3.78;3.45;;;14.50;99.90;;;;;;5116901;28;20208;-78
2023/01/07 13:03:22;;;;;;;6.90;4.10;;;14.30;99.90;;;;;;5116975;28;20206;-79
2023/01/07 13:05:56;;;;;;;3.42;3.10;;;14.00;99.90;;;;;;5116893;28;20306;-78
2023/01/07 13:08:37;;;;;;;3.42;3.13;;;13.90;99.90;;;;;;5116150;28;20212;-78
2023/01/07 13:11:16;;;;;;;3.75;3.35;;;13.70;99.90;;;;;;5117051;28;20227;-78
2023/01/07 13:13:51;;;;;;;4.05;3.65;;;13.50;99.90;;;;;;5116602;28;20216;-78
2023/01/07 13:16:20;;;;;;;4.18;3.50;;;13.40;99.90;;;;;;5116839;28;20231;-78
2023/01/07 13:18:48;;;;;;;5.30;3.80;;;13.30;99.90;;;;;;5116191;28;20310;-78
2023/01/07 13:21:18;;;;;;;3.45;3.15;;;13.30;99.90;;;;;;5116411;28;20211;-78
2023/01/07 13:24:06;;;;;;;2.80;2.60;;;13.20;99.90;;;;;;5116415;28;20294;-78